Sanibel, FL (33957)

1:59 AM EDT on July 24, 2016 (GMT -0400)
IWA on Sanibel Island | | Change Station

Elev 7 ft 26.44 °N, 82.11 °W | Updated 9 seconds ago

Overcast
Overcast
73.9 °F
Feels Like 76 °F
N
1.0
Wind Variable Wind from SE
Gusts 15.0 mph

Today
High -- | Low -- °F
--% Chance of Precip.
Yesterday
High -- | Low -- °F
Precip. -- in
Pressure 30.06 in
Visibility 7.0 miles
Clouds Scattered Clouds 8000 ft
Mostly Cloudy 11000 ft
Heat Index 76 °F
Dew Point 63 °F
Humidity 68%
Rainfall 0.85 in
Snow Depth Not available.
6:49 AM 8:19 PM
Waning Gibbous, 79% visible
METAR KFMY 240553Z AUTO 15003KT 7SM -RA SCT080 BKN110 22/22 A3005 RMK AO2 LTG DSNT ALQDS TSE07B17E32 SLP178 P0142 60205 T02220217 10278 20222 53004
Pressure 30.06 in
Visibility 7.0 miles
Clouds Scattered Clouds 8000 ft
Mostly Cloudy 11000 ft
Heat Index 76 °F
Dew Point 63 °F
Humidity 68%
Rainfall 0.85 in
Snow Depth Not available.
6:49 AM 8:19 PM
Waning Gibbous, 79% visible
METAR KFMY 240553Z AUTO 15003KT 7SM -RA SCT080 BKN110 22/22 A3005 RMK AO2 LTG DSNT ALQDS TSE07B17E32 SLP178 P0142 60205 T02220217 10278 20222 53004

10-Day Weather Forecast

Almanac

Astronomy

Jul. 24, 2016 Rise Set
Actual Time
Civil Twilight
Nautical Twilight
Astronomical Twilight
Moon
Length of Visible Light
Length of Day
Tomorrow will be .
, % of the Moon is Illuminated

Today's Extremes

State Highs State Lows

Community

WunderPhotos

Upload Photos

1,927,039 photos uploaded!

WunderBlog® & News

Nearby

Air Quality

  Air Quality AQ Index Pollutant
Not available.

Snow Depth

Station Depth Elevation

Earthquake Activity

City Distance Mag. Time & Date
Minimum magnitude displayed is 2.5.

Coastal Water Temperatures

Place Temperature

Stations

Nearby Weather Stations

Station Location Temp. Windchill Dew Point Humidity Wind Precip. Elev Updated Type
                   

Watches & Warnings

There are currently no watches in effect.